Time;durP1;ratioP1;P1;durP2;ratioP2;P2;SDS_P1;SDS_P2;PMS_P1;PMS_P2;Temp;Humidity;BMP_temperature;BMP_pressure;BME280_temperature;BME280_humidity;BME280_pressure;Samples;Min_cycle;Max_cycle;Signal;HPM_P1;HPM_P2
2023/07/20 00:03:40;;;;;;;8.63;6.90;;;;;;;-145.68;100.00;73192.00;10411383;28;20224;-72
2023/07/20 00:08:41;;;;;;;9.57;7.40;;;;;;;-145.68;100.00;73205.97;10411265;28;20591;-72
2023/07/20 00:13:41;;;;;;;10.77;7.45;;;;;;;-145.68;100.00;73194.00;10410920;28;20184;-72
2023/07/20 00:18:42;;;;;;;12.35;7.32;;;;;;;-145.68;100.00;73205.97;10410817;28;20674;-72
2023/07/20 00:23:42;;;;;;;9.93;7.50;;;;;;;-145.68;100.00;73184.00;10410877;28;20274;-72
2023/07/20 00:28:43;;;;;;;9.98;6.65;;;;;;;-145.68;100.00;73174.00;10411373;28;20212;-72
2023/07/20 00:33:43;;;;;;;10.43;7.30;;;;;;;-145.68;100.00;73180.00;10411248;28;20173;-72
2023/07/20 00:38:44;;;;;;;11.30;6.45;;;;;;;-145.68;100.00;73188.00;10410392;28;20258;-73
2023/07/20 00:43:44;;;;;;;11.55;6.20;;;;;;;-145.68;100.00;73176.00;10411116;28;20706;-73
2023/07/20 00:48:45;;;;;;;9.23;6.05;;;;;;;-145.68;100.00;73176.00;10410230;28;20211;-73
2023/07/20 00:53:46;;;;;;;8.00;5.78;;;;;;;-145.68;100.00;73182.00;10392364;28;20272;-73
2023/07/20 00:58:46;;;;;;;13.80;6.78;;;;;;;-145.68;100.00;73186.00;10411007;28;20549;-73
2023/07/20 01:03:47;;;;;;;8.73;6.32;;;;;;;-145.68;100.00;73203.97;10410320;28;20295;-73
2023/07/20 01:09:19;;;;;;;8.15;7.10;;;;;;;-145.68;100.00;73200.00;10410978;28;20279;-73
2023/07/20 01:14:20;;;;;;;8.13;6.80;;;;;;;-145.68;100.00;73174.00;10410668;28;20276;-73
2023/07/20 01:19:20;;;;;;;11.32;7.47;;;;;;;-145.68;100.00;73213.97;10410917;28;20774;-73
2023/07/20 01:24:52;;;;;;;9.40;7.85;;;;;;;-145.68;100.00;73215.97;10410245;28;20223;-73
2023/07/20 01:30:08;;;;;;;9.13;7.95;;;;;;;-145.68;100.00;73215.97;10396661;28;20266;-73
2023/07/20 01:35:10;;;;;;;12.73;7.97;;;;;;;-145.68;100.00;73239.97;10384295;28;20184;-73
2023/07/20 01:40:11;;;;;;;11.80;8.50;;;;;;;-145.68;100.00;73249.94;10417869;28;20212;-73
2023/07/20 01:45:11;;;;;;;14.00;9.73;;;;;;;-145.68;100.00;73269.94;10417457;28;20235;-72
2023/07/20 01:50:11;;;;;;;17.50;11.45;;;;;;;-145.68;100.00;73265.94;10416834;28;20212;-72
2023/07/20 01:55:12;;;;;;;12.32;10.77;;;;;;;-145.68;100.00;73271.94;10399654;28;20537;-72
2023/07/20 02:00:12;;;;;;;12.93;11.50;;;;;;;-145.68;100.00;73285.94;10417846;28;20211;-72
2023/07/20 02:05:16;;;;;;;17.98;13.07;;;;;;;-145.68;100.00;73305.91;10416285;28;20216;-72
2023/07/20 02:10:17;;;;;;;18.45;14.85;;;;;;;-145.68;100.00;73333.91;10414758;28;20232;-72
2023/07/20 02:15:18;;;;;;;16.05;13.65;;;;;;;-145.68;100.00;73355.88;10416578;28;20188;-72
2023/07/20 02:20:19;;;;;;;15.82;13.55;;;;;;;-145.68;100.00;73341.91;10398399;28;20204;-72
2023/07/20 02:25:20;;;;;;;18.75;14.10;;;;;;;-145.68;100.00;73359.88;10415154;28;20213;-72
2023/07/20 02:30:20;;;;;;;17.27;13.98;;;;;;;-145.68;100.00;73363.88;10397329;28;20563;-73
2023/07/20 02:35:20;;;;;;;20.35;15.15;;;;;;;-145.68;100.00;73397.84;10415162;28;20743;-74
2023/07/20 02:40:21;;;;;;;18.77;14.38;;;;;;;-145.68;100.00;73403.84;10413575;28;20575;-73
2023/07/20 02:45:21;;;;;;;19.50;15.95;;;;;;;-145.68;100.00;73415.84;10429726;28;20224;-74
2023/07/20 02:50:22;;;;;;;16.48;14.30;;;;;;;-145.68;100.00;73435.84;10436975;28;20208;-74
2023/07/20 02:55:22;;;;;;;15.55;13.93;;;;;;;-145.68;100.00;73425.84;10437582;28;20207;-74
2023/07/20 03:00:23;;;;;;;15.82;13.82;;;;;;;-145.68;100.00;73437.84;10455305;28;20208;-75
2023/07/20 03:05:27;;;;;;;15.20;11.95;;;;;;;-145.68;100.00;73431.84;10454998;28;20219;-74
2023/07/20 03:10:28;;;;;;;14.10;12.23;;;;;;;-145.68;100.00;73429.84;10454910;28;20223;-74
2023/07/20 03:15:31;;;;;;;13.57;12.10;;;;;;;-145.68;100.00;73437.84;10453690;28;20525;-72
2023/07/20 03:20:32;;;;;;;13.35;11.13;;;;;;;-145.68;100.00;73437.84;10454568;28;20188;-72
2023/07/20 03:25:33;;;;;;;12.70;11.10;;;;;;;-145.68;100.00;73427.84;10435902;28;20740;-71
2023/07/20 03:30:35;;;;;;;16.58;12.07;;;;;;;-145.68;100.00;73423.84;10436143;28;20190;-71
2023/07/20 03:35:35;;;;;;;14.98;12.15;;;;;;;-145.68;100.00;73431.84;10436229;28;20211;-71
2023/07/20 03:40:38;;;;;;;14.20;11.40;;;;;;;-145.68;100.00;73431.84;10435282;28;20188;-74
2023/07/20 03:45:38;;;;;;;14.40;12.90;;;;;;;-145.68;100.00;73417.84;10453295;28;20697;-74
2023/07/20 03:50:39;;;;;;;16.60;12.50;;;;;;;-145.68;100.00;73427.84;10436371;28;21060;-74
2023/07/20 03:55:40;;;;;;;20.00;13.48;;;;;;;-145.68;100.00;73423.84;10453194;28;20561;-73
2023/07/20 04:00:46;;;;;;;13.90;12.38;;;;;;;-145.68;100.00;73427.84;10453225;28;20180;-73
2023/07/20 04:05:47;;;;;;;17.60;13.02;;;;;;;-145.68;100.00;73439.84;10453163;28;20242;-74
2023/07/20 04:10:47;;;;;;;13.93;11.43;;;;;;;-145.68;100.00;73447.81;10434102;28;20703;-74
2023/07/20 04:15:47;;;;;;;15.02;12.27;;;;;;;-145.68;100.00;73457.81;10433979;28;20192;-74
2023/07/20 04:20:48;;;;;;;16.92;13.05;;;;;;;-145.68;100.00;73453.81;10434117;28;20674;-74
2023/07/20 04:25:48;;;;;;;13.52;12.20;;;;;;;-145.68;100.00;73455.81;10452262;28;20626;-73
2023/07/20 04:30:50;;;;;;;17.80;15.27;;;;;;;-145.68;100.00;73413.84;10452608;28;20267;-73
2023/07/20 04:35:52;;;;;;;21.02;17.88;;;;;;;-145.68;100.00;73369.88;10434097;28;20207;-73
2023/07/20 04:40:57;;;;;;;20.10;15.48;;;;;;;-145.68;100.00;73349.88;10434283;28;20202;-73
2023/07/20 04:45:58;;;;;;;18.67;14.60;;;;;;;-145.68;100.00;73319.91;10451831;28;20219;-72
2023/07/20 04:50:58;;;;;;;16.60;14.30;;;;;;;-145.68;100.00;73307.91;10433660;28;20188;-72
2023/07/20 04:55:59;;;;;;;17.70;14.48;;;;;;;-145.68;100.00;73283.94;10433930;28;20208;-73
2023/07/20 05:01:00;;;;;;;20.92;15.18;;;;;;;-145.68;100.00;73251.94;10451572;28;20188;-72
2023/07/20 05:06:01;;;;;;;17.77;15.40;;;;;;;-145.68;100.00;73227.97;10438327;28;20238;-73
2023/07/20 05:11:01;;;;;;;18.15;14.43;;;;;;;-145.68;100.00;73196.00;10470475;22;20199;-66
2023/07/20 05:16:02;;;;;;;18.05;14.32;;;;;;;-145.68;100.00;73200.00;10255323;29;20210;-66
2023/07/20 05:21:03;;;;;;;18.92;14.80;;;;;;;-145.68;100.00;73225.97;10257695;28;20198;-66
2023/07/20 05:26:03;;;;;;;15.73;14.18;;;;;;;-145.68;100.00;73186.00;10295773;28;20700;-66
2023/07/20 05:31:04;;;;;;;13.38;11.40;;;;;;;-145.68;100.00;73174.00;10296000;28;20214;-67
2023/07/20 05:36:04;;;;;;;16.05;11.70;;;;;;;-145.68;100.00;73196.00;10295357;28;20191;-65
2023/07/20 05:41:04;;;;;;;12.73;10.40;;;;;;;-145.68;100.00;73168.00;10295673;28;20697;-66
2023/07/20 05:46:05;;;;;;;12.30;10.80;;;;;;;-145.68;100.00;73150.03;10295510;28;20222;-66
2023/07/20 05:51:06;;;;;;;12.77;9.38;;;;;;;-145.68;100.00;73146.03;10294970;28;20210;-67
2023/07/20 05:56:09;;;;;;;10.07;8.60;;;;;;;-145.68;100.00;73074.06;10294487;28;20198;-66
2023/07/20 06:01:10;;;;;;;10.77;9.25;;;;;;;-145.68;100.00;73132.03;10312268;28;20222;-65
2023/07/20 06:06:11;;;;;;;15.00;9.13;;;;;;;-145.68;100.00;73044.09;10333731;28;20305;-66
2023/07/20 06:11:12;;;;;;;12.13;8.50;;;;;;;-145.68;100.00;73010.13;10338859;28;20315;-65
2023/07/20 06:16:13;;;;;;;10.32;8.45;;;;;;;-145.68;98.11;73016.13;10415296;28;20200;-67
2023/07/20 06:21:13;;;;;;;12.75;9.82;;;;;;;-145.68;100.00;73046.09;10416109;28;20212;-67
2023/07/20 06:26:14;;;;;;;10.70;9.43;;;;;;;-145.68;100.00;72986.13;10415387;28;20220;-67
2023/07/20 06:31:14;;;;;;;11.45;9.55;;;;;;;-145.68;100.00;73018.13;10388002;28;20213;-67
2023/07/20 06:36:18;;;;;;;12.23;9.23;;;;;;;-145.68;100.00;73056.09;10374839;28;20182;-66
2023/07/20 06:41:18;;;;;;;14.35;11.80;;;;;;;-145.68;100.00;73190.00;10374812;28;20292;-66
2023/07/20 06:46:19;;;;;;;9.10;6.70;;;;;;;-145.68;100.00;73245.97;10374283;28;20267;-66
2023/07/20 06:51:19;;;;;;;11.45;9.52;;;;;;;-145.68;100.00;73301.91;10374000;28;20224;-66
2023/07/20 06:56:20;;;;;;;10.43;9.40;;;;;;;-145.68;100.00;73341.91;10368742;28;20627;-66
2023/07/20 07:01:21;;;;;;;9.52;8.60;;;;;;;-145.68;100.00;73343.88;10372315;28;20205;-65
2023/07/20 07:06:22;;;;;;;10.13;9.18;;;;;;;-145.68;100.00;73363.88;10372868;28;20738;-67
2023/07/20 07:11:23;;;;;;;9.80;8.48;;;;;;;-145.68;100.00;73357.88;10368145;28;20230;-67
2023/07/20 07:16:23;;;;;;;7.70;7.07;;;;;;;-145.68;100.00;73307.91;10328671;28;20190;-67
2023/07/20 07:21:24;;;;;;;5.65;5.15;;;;;;;-145.68;100.00;73267.94;10329543;28;20248;-66
2023/07/20 07:26:24;;;;;;;4.47;4.07;;;;;;;-145.68;100.00;73229.97;10327572;28;20222;-67
2023/07/20 07:31:25;;;;;;;4.07;3.67;;;;;;;-145.68;100.00;73170.00;10328759;28;20216;-67
2023/07/20 07:36:25;;;;;;;4.07;3.63;;;;;;;-145.68;100.00;73118.03;10330161;28;20244;-67
2023/07/20 07:41:26;;;;;;;3.72;3.42;;;;;;;-145.68;100.00;73118.03;10329324;28;20214;-68
2023/07/20 07:46:26;;;;;;;3.60;3.30;;;;;;;-145.68;100.00;73060.09;10328286;28;20622;-67
2023/07/20 07:51:29;;;;;;;4.07;3.50;;;;;;;-145.68;100.00;72988.13;10328195;28;20455;-67
2023/07/20 07:56:29;;;;;;;3.10;2.90;;;;;;;-145.68;97.43;73004.13;10328278;28;20200;-67
2023/07/20 08:01:30;;;;;;;3.72;2.47;;;;;;;-145.68;96.52;72942.16;10328527;28;20222;-69
2023/07/20 08:06:31;;;;;;;2.63;2.40;;;;;;;-145.68;81.68;72900.19;10328992;28;20221;-67
2023/07/20 08:11:33;;;;;;;3.17;2.35;;;;;;;-145.68;84.34;72912.19;10328885;28;20246;-66
2023/07/20 08:16:33;;;;;;;2.80;2.60;;;;;;;-145.68;92.61;72952.16;10327542;28;20198;-68
2023/07/20 08:21:34;;;;;;;2.80;2.60;;;;;;;-145.68;82.63;72810.28;10328905;28;20217;-69
2023/07/20 08:26:34;;;;;;;2.60;2.40;;;;;;;-145.68;74.05;72790.28;10327769;28;20221;-69
2023/07/20 08:31:34;;;;;;;2.83;2.53;;;;;;;-145.68;78.20;72874.22;10327008;28;20241;-69
2023/07/20 08:36:35;;;;;;;3.88;2.00;;;;;;;-145.68;69.21;72750.31;10328447;28;20649;-67
2023/07/20 08:41:36;;;;;;;2.35;2.15;;;;;;;-145.68;64.72;72668.38;10307696;28;20590;-65
2023/07/20 08:46:38;;;;;;;3.35;2.80;;;;;;;-145.68;62.31;72636.41;10310535;28;20225;-65
2023/07/20 08:51:39;;;;;;;2.55;2.35;;;;;;;-145.68;64.07;72660.38;10327988;28;20224;-65
2023/07/20 08:56:41;;;;;;;2.83;2.58;;;;;;;-145.68;63.62;72670.38;10327576;28;20209;-63
2023/07/20 09:01:41;;;;;;;4.13;2.65;;;;;;;-145.68;61.21;72520.50;10317062;28;20213;-65
2023/07/20 09:06:42;;;;;;;2.50;2.00;;;;;;;-145.68;58.54;72468.56;10327950;28;20214;-65
2023/07/20 09:11:42;;;;;;;3.35;1.92;;;;;;;-145.68;55.48;72500.53;10327583;28;20248;-65
2023/07/20 09:16:53;;;;;;;1.60;1.50;;;;;;;-145.68;55.31;72432.59;10326443;28;20178;-66
2023/07/20 09:21:53;;;;;;;2.80;1.63;;;;;;;-145.68;57.77;72568.47;10312103;28;20276;-64
2023/07/20 09:26:54;;;;;;;2.60;2.30;;;;;;;-145.68;56.21;72450.56;10327035;28;20830;-65
2023/07/20 09:32:04;;;;;;;2.83;2.10;;;;;;;-145.68;54.08;72398.63;10326783;28;20296;-65
2023/07/20 09:37:05;;;;;;;2.63;1.85;;;;;;;-145.68;54.46;72344.66;10324256;28;20233;-65
2023/07/20 09:42:05;;;;;;;3.58;2.28;;;;;;;-145.68;52.62;72394.63;10309509;28;20225;-64
2023/07/20 09:47:06;;;;;;;6.47;2.67;;;;;;;-145.68;57.93;72740.31;10325610;28;20280;-67
2023/07/20 09:52:08;;;;;;;2.95;2.00;;;;;;;-145.68;55.01;72478.53;10331521;28;20213;-67
2023/07/20 09:57:08;;;;;;;2.60;1.92;;;;;;;-145.68;53.09;72402.59;10325985;28;20221;-67
2023/07/20 10:02:20;;;;;;;2.50;1.90;;;;;;;-145.68;53.24;72502.53;10333455;28;20712;-66
2023/07/20 10:07:23;;;;;;;4.45;2.58;;;;;;;-145.68;57.67;72728.34;10333244;28;20614;-65
2023/07/20 10:12:25;;;;;;;2.72;2.03;;;;;;;-145.68;52.82;72418.59;10333618;28;20803;-67
2023/07/20 10:17:25;;;;;;;2.75;1.77;;;;;;;-145.68;52.16;72404.59;10332572;28;20193;-66
2023/07/20 10:22:27;;;;;;;4.38;2.30;;;;;;;-145.68;49.42;72328.69;10333467;28;20218;-65
2023/07/20 10:27:27;;;;;;;3.03;2.08;;;;;;;-145.68;50.00;72422.59;10333252;28;20197;-65
2023/07/20 10:32:28;;;;;;;2.97;2.17;;;;;;;-145.68;52.32;72516.50;10333271;28;20209;-65
2023/07/20 10:37:50;;;;;;;3.15;2.30;;;;;;;-145.68;49.71;72462.56;10332050;28;20252;-67
2023/07/20 10:42:51;;;;;;;6.90;2.00;;;;;;;-145.68;52.04;72502.53;10332354;28;20238;-67
2023/07/20 10:47:55;;;;;;;4.90;2.38;;;;;;;-145.68;53.46;72560.47;10331736;28;20564;-67
2023/07/20 10:53:05;;;;;;;5.93;2.97;;;;;;;-145.68;53.31;72572.47;10332477;28;20225;-67
2023/07/20 10:58:14;;;;;;;3.85;2.47;;;;;;;-145.68;54.55;72494.53;10332799;28;20233;-67
2023/07/20 11:03:26;;;;;;;3.80;2.25;;;;;;;-145.68;52.09;72440.56;10331826;28;20233;-67
2023/07/20 11:08:41;;;;;;;3.70;1.95;;;;;;;-145.68;51.11;72366.63;10343302;28;20965;-64
2023/07/20 11:13:57;;;;;;;3.45;1.95;;;;;;;-145.68;49.75;72310.69;10336121;23;20679;-72
2023/07/20 11:18:57;;;;;;;4.47;2.13;;;;;;;-145.68;51.06;72420.59;10290134;28;20274;-73
2023/07/20 11:24:03;;;;;;;2.35;2.15;;;;;;;-145.68;50.27;72344.66;10292140;28;20222;-73
2023/07/20 11:29:03;;;;;;;3.72;2.65;;;;;;;-145.68;54.24;72544.50;10311288;28;20777;-73
2023/07/20 11:34:03;;;;;;;2.72;2.47;;;;;;;-145.68;53.82;72560.47;10297040;28;20219;-71
2023/07/20 11:39:04;;;;;;;4.05;2.50;;;;;;;-145.68;54.61;72518.50;10290574;28;20261;-71
2023/07/20 11:44:09;;;;;;;5.32;2.00;;;;;;;-145.68;48.65;72296.69;10310157;28;20230;-70
2023/07/20 11:49:09;;;;;;;8.10;2.00;;;;;;;-145.68;44.73;72098.88;10329418;28;20205;-70
2023/07/20 11:54:10;;;;;;;2.50;2.13;;;;;;;-145.68;44.68;72090.91;10329995;28;20779;-72
2023/07/20 11:59:10;;;;;;;2.97;2.40;;;;;;;-145.68;48.51;72472.53;10329486;28;20186;-72
2023/07/20 12:04:10;;;;;;;3.53;2.22;;;;;;;-145.68;50.31;72398.63;10329717;28;20226;-72
2023/07/20 12:09:14;;;;;;;2.70;1.95;;;;;;;-145.68;47.79;72334.66;10329291;28;20657;-72
2023/07/20 12:14:15;;;;;;;5.80;1.90;;;;;;;-145.68;48.98;72504.53;10327155;28;20265;-71
2023/07/20 12:19:15;;;;;;;2.67;1.80;;;;;;;-145.68;44.85;72142.84;10328889;28;20225;-71
2023/07/20 12:24:17;;;;;;;2.00;1.58;;;;;;;-145.68;42.48;72030.94;10328426;28;20598;-71
2023/07/20 12:29:18;;;;;;;3.80;1.90;;;;;;;-145.68;40.99;71975.00;10327390;28;20197;-72
2023/07/20 12:34:18;;;;;;;4.07;1.85;;;;;;;-145.68;42.99;72092.91;10328106;28;20216;-71
2023/07/20 12:39:18;;;;;;;2.95;1.65;;;;;;;-145.68;42.08;72022.97;10328635;28;20675;-72
2023/07/20 12:44:19;;;;;;;2.17;1.80;;;;;;;-145.68;47.19;72308.69;10328089;28;20710;-73
2023/07/20 12:49:19;;;;;;;6.47;4.45;;;;;;;-145.68;59.27;72588.44;10327202;28;20276;-73
2023/07/20 12:54:20;;;;;;;3.67;2.47;;;;;;;-145.68;67.88;72866.22;10328287;28;20217;-72
2023/07/20 12:59:21;;;;;;;2.55;2.15;;;;;;;-145.68;78.85;72916.19;10327927;28;20194;-72
2023/07/20 13:04:21;;;;;;;3.03;2.63;;;;;;;-145.68;100.00;72990.13;10328249;28;20221;-71
2023/07/20 13:09:22;;;;;;;3.50;3.20;;;;;;;-145.68;96.25;72904.19;10327344;28;20625;-74
2023/07/20 13:14:22;;;;;;;3.67;3.38;;;;;;;-145.68;87.75;72828.25;10326727;28;20238;-73
2023/07/20 13:19:23;;;;;;;3.92;3.10;;;;;;;-145.68;78.51;72848.25;10324880;28;20611;-71
2023/07/20 13:24:23;;;;;;;7.15;2.33;;;;;;;-145.68;75.20;72752.31;10327029;28;20236;-71
2023/07/20 13:29:25;;;;;;;1.55;1.45;;;;;;;-145.68;67.82;72762.31;10356939;28;20224;-70
2023/07/20 13:34:26;;;;;;;1.95;1.75;;;;;;;-145.68;68.85;72770.31;10360662;28;20206;-70
2023/07/20 13:39:27;;;;;;;2.05;1.90;;;;;;;-145.68;71.91;73002.13;10333724;28;20562;-70
2023/07/20 13:44:28;;;;;;;2.53;2.33;;;;;;;-145.68;75.12;73008.13;10332500;28;20218;-70
2023/07/20 13:49:28;;;;;;;3.85;2.42;;;;;;;-145.68;75.21;72988.13;10332611;28;20197;-71
2023/07/20 13:54:28;;;;;;;3.00;2.53;;;;;;;-145.68;73.58;73034.09;10330392;28;20218;-70
2023/07/20 13:59:29;;;;;;;3.67;2.90;;;;;;;-145.68;73.94;73100.06;10331171;28;20665;-70
2023/07/20 14:04:29;;;;;;;4.47;2.78;;;;;;;-145.68;71.49;73072.06;10330021;28;20234;-70
2023/07/20 14:09:30;;;;;;;4.10;3.25;;;;;;;-145.68;71.88;73092.06;10309906;28;20572;-70
2023/07/20 14:14:30;;;;;;;4.60;2.80;;;;;;;-145.68;71.61;73072.06;10263373;28;1038794;-71
2023/07/20 14:19:30;;;;;;;2.55;2.35;;;;;;;-145.68;68.90;73102.06;10292961;28;20574;-71
2023/07/20 14:24:31;;;;;;;3.13;2.80;;;;;;;-145.68;69.46;73124.03;10314757;28;20650;-70
2023/07/20 14:29:40;;;;;;;2.42;2.22;;;;;;;-145.68;68.97;72994.13;10333115;28;20288;-70
2023/07/20 14:34:40;;;;;;;1.70;1.60;;;;;;;-145.68;59.95;72728.34;10332529;28;20253;-69
2023/07/20 14:39:41;;;;;;;1.60;1.50;;;;;;;-145.68;51.79;72482.53;10330936;28;20205;-70
2023/07/20 14:44:41;;;;;;;2.05;1.40;;;;;;;-145.68;48.14;72340.66;10331531;28;20760;-69
2023/07/20 14:49:41;;;;;;;3.15;1.40;;;;;;;-145.68;44.17;72048.94;10331777;28;20695;-69
2023/07/20 14:54:42;;;;;;;1.67;1.35;;;;;;;-145.68;44.29;72160.81;10330559;28;20637;-69
2023/07/20 14:59:43;;;;;;;2.05;1.20;;;;;;;-145.68;45.79;72198.78;10331098;28;20189;-70
2023/07/20 15:04:50;;;;;;;1.95;1.00;;;;;;;-145.68;43.98;72150.84;10316808;28;20228;-70
2023/07/20 15:09:51;;;;;;;1.08;1.08;;;;;;;-145.68;45.79;72194.78;10311208;28;20261;-70
2023/07/20 15:15:06;;;;;;;1.30;1.10;;;;;;;-145.68;45.57;72158.84;10309548;28;20284;-70
2023/07/20 15:20:10;;;;;;;1.00;1.00;;;;;;;-145.68;43.18;72022.97;10308274;28;20198;-70
2023/07/20 15:25:11;;;;;;;1.13;0.90;;;;;;;-145.68;41.32;71891.09;10309663;28;20250;-69
2023/07/20 15:30:12;;;;;;;1.23;1.02;;;;;;;-145.68;40.64;71897.09;10311729;28;20285;-70
2023/07/20 15:35:12;;;;;;;1.23;1.13;;;;;;;-145.68;42.57;72076.91;10306995;28;20699;-70
2023/07/20 15:40:12;;;;;;;2.35;1.13;;;;;;;-145.68;39.69;71877.09;10308299;28;20194;-70
2023/07/20 15:45:13;;;;;;;0.95;0.93;;;;;;;-145.68;39.79;71819.16;10295877;28;20229;-69
2023/07/20 15:50:14;;;;;;;1.08;0.60;;;;;;;-145.68;39.41;71889.09;10288935;28;20195;-70
2023/07/20 15:55:14;;;;;;;0.70;0.70;;;;;;;-145.68;39.37;71861.13;10288983;28;20222;-69
2023/07/20 16:00:15;;;;;;;1.35;0.70;;;;;;;-145.68;39.22;71996.97;10325081;28;20189;-70
2023/07/20 16:05:15;;;;;;;1.42;0.90;;;;;;;-145.68;41.97;72196.78;10344107;28;20218;-69
2023/07/20 16:10:16;;;;;;;0.80;0.75;;;;;;;-145.68;44.80;72312.69;10286869;28;20202;-70
2023/07/20 16:15:16;;;;;;;1.98;0.82;;;;;;;-145.68;44.47;72320.69;10287830;28;20724;-70
2023/07/20 16:20:16;;;;;;;2.80;0.90;;;;;;;-145.68;46.76;72404.59;10289849;28;20209;-69
2023/07/20 16:25:17;;;;;;;1.75;0.75;;;;;;;-145.68;47.62;72438.56;10289464;28;20594;-70
2023/07/20 16:30:18;;;;;;;1.00;0.80;;;;;;;-145.68;46.74;72464.56;10289829;28;20186;-69
2023/07/20 16:35:18;;;;;;;0.80;0.73;;;;;;;-145.68;47.91;72486.53;10289355;28;20225;-69
2023/07/20 16:40:19;;;;;;;0.68;0.63;;;;;;;-145.68;48.80;72510.50;10289547;28;20278;-70
2023/07/20 16:45:19;;;;;;;4.30;1.70;;;;;;;-145.68;47.98;72450.56;10289332;28;20230;-70
2023/07/20 16:50:19;;;;;;;0.80;0.80;;;;;;;-145.68;47.64;72454.56;10289042;28;20281;-70
2023/07/20 16:55:20;;;;;;;2.03;1.45;;;;;;;-145.68;47.34;72534.50;10298291;28;20217;-69
2023/07/20 17:00:21;;;;;;;2.97;1.00;;;;;;;-145.68;47.66;72510.50;10312369;28;20200;-69
2023/07/20 17:05:22;;;;;;;1.42;0.80;;;;;;;-145.68;48.38;72548.47;10306566;28;20222;-70
2023/07/20 17:10:23;;;;;;;0.80;0.75;;;;;;;-145.68;49.20;72574.47;10296406;28;20194;-70
2023/07/20 17:15:23;;;;;;;0.70;0.70;;;;;;;-145.68;49.61;72600.44;10315397;23;20621;-64
2023/07/20 17:20:24;;;;;;;3.30;0.85;;;;;;;-145.68;51.25;72662.38;10317856;28;20201;-65
2023/07/20 17:25:24;;;;;;;1.23;1.13;;;;;;;-145.68;51.24;72670.38;10336015;28;20284;-64
2023/07/20 17:30:25;;;;;;;0.85;0.80;;;;;;;-145.68;51.54;72672.38;10334782;28;20198;-64
2023/07/20 17:35:27;;;;;;;1.17;0.90;;;;;;;-145.68;51.29;72714.34;10334226;28;20315;-65
2023/07/20 17:40:28;;;;;;;1.20;0.98;;;;;;;-145.68;52.03;72784.28;10335397;28;20186;-64
2023/07/20 17:45:29;;;;;;;1.55;1.00;;;;;;;-145.68;53.43;72786.28;10335798;28;20387;-64
2023/07/20 17:50:29;;;;;;;1.02;0.70;;;;;;;-145.68;51.42;72778.28;10333019;28;20260;-64
2023/07/20 17:55:29;;;;;;;0.63;0.63;;;;;;;-145.68;52.29;72846.25;10335054;28;20217;-64
2023/07/20 18:00:31;;;;;;;0.85;0.85;;;;;;;-145.68;52.35;72804.28;10332192;28;20189;-65
2023/07/20 18:05:31;;;;;;;1.75;1.02;;;;;;;-145.68;53.79;72846.25;10332752;28;20226;-65
2023/07/20 18:10:32;;;;;;;1.42;1.02;;;;;;;-145.68;53.91;72832.25;10333371;28;20809;-64
2023/07/20 18:15:32;;;;;;;1.00;1.00;;;;;;;-145.68;53.64;72848.25;10333345;28;20233;-64
2023/07/20 18:20:34;;;;;;;3.10;1.20;;;;;;;-145.68;56.36;72910.19;10334780;28;20201;-64
2023/07/20 18:25:35;;;;;;;1.35;1.27;;;;;;;-145.68;57.78;72948.16;10333675;28;20218;-65
2023/07/20 18:30:35;;;;;;;1.88;1.40;;;;;;;-145.68;59.24;72978.16;10334944;28;20273;-65
2023/07/20 18:35:36;;;;;;;1.33;1.23;;;;;;;-145.68;62.15;73032.09;10334581;28;20210;-65
2023/07/20 18:40:36;;;;;;;1.80;1.40;;;;;;;-145.68;65.96;73088.06;10334039;28;20186;-65
2023/07/20 18:45:37;;;;;;;1.60;1.50;;;;;;;-145.68;69.08;73146.03;10334159;28;20229;-65
2023/07/20 18:50:37;;;;;;;2.92;1.50;;;;;;;-145.68;74.80;73194.00;10333395;28;20743;-65
2023/07/20 18:55:38;;;;;;;2.22;2.03;;;;;;;-145.68;79.53;73239.97;10332298;28;20214;-64
2023/07/20 19:00:38;;;;;;;4.03;1.80;;;;;;;-145.68;82.79;73265.94;10332548;28;20684;-66
2023/07/20 19:05:44;;;;;;;2.78;1.65;;;;;;;-145.68;86.70;73275.94;10332703;28;20226;-65
2023/07/20 19:10:44;;;;;;;5.40;2.80;;;;;;;-145.68;87.85;73269.94;10331888;28;20221;-65
2023/07/20 19:15:49;;;;;;;2.10;1.70;;;;;;;-145.68;90.27;73313.91;10331917;28;20317;-65
2023/07/20 19:20:49;;;;;;;3.55;1.92;;;;;;;-145.68;94.00;73357.88;10332282;28;20258;-65
2023/07/20 19:25:50;;;;;;;2.85;2.10;;;;;;;-145.68;99.86;73387.88;10330940;28;20226;-65
2023/07/20 19:30:50;;;;;;;3.03;2.28;;;;;;;-145.68;100.00;73411.84;10331838;28;20198;-64
2023/07/20 19:35:51;;;;;;;2.90;2.70;;;;;;;-145.68;100.00;73475.81;10330857;28;20727;-64
2023/07/20 19:40:53;;;;;;;4.80;2.63;;;;;;;-145.68;100.00;73497.78;10331027;28;20614;-64
2023/07/20 19:45:53;;;;;;;3.80;2.50;;;;;;;-145.68;100.00;73495.78;10330574;28;20222;-64
2023/07/20 19:50:54;;;;;;;2.60;2.40;;;;;;;-145.68;100.00;73501.78;10330395;28;20565;-65
2023/07/20 19:56:00;;;;;;;2.10;2.00;;;;;;;-145.68;100.00;73499.78;10330388;28;20576;-64
2023/07/20 20:01:00;;;;;;;2.50;2.30;;;;;;;-145.68;100.00;73515.78;10330370;28;20224;-65
2023/07/20 20:06:01;;;;;;;2.30;2.10;;;;;;;-145.68;100.00;73507.78;10329568;28;20704;-64
2023/07/20 20:11:01;;;;;;;2.85;2.65;;;;;;;-145.68;100.00;73545.78;10328630;28;20571;-66
2023/07/20 20:16:03;;;;;;;2.90;2.67;;;;;;;-145.68;100.00;73539.78;10329582;28;20229;-66
2023/07/20 20:21:05;;;;;;;2.92;2.40;;;;;;;-145.68;100.00;73541.78;10329978;28;20202;-66
2023/07/20 20:26:06;;;;;;;2.63;2.42;;;;;;;-145.68;100.00;73553.75;10329525;28;20249;-66
2023/07/20 20:31:06;;;;;;;2.88;2.33;;;;;;;-145.68;100.00;73567.75;10329155;28;20209;-65
2023/07/20 20:36:07;;;;;;;2.80;2.33;;;;;;;-145.68;100.00;73573.75;10328558;28;20214;-65
2023/07/20 20:41:07;;;;;;;4.35;3.00;;;;;;;-145.68;100.00;73579.75;10328873;28;20197;-65
2023/07/20 20:46:12;;;;;;;2.67;2.35;;;;;;;-145.68;100.00;73591.75;10329197;28;20379;-65
2023/07/20 20:51:13;;;;;;;2.65;2.40;;;;;;;-145.68;100.00;73601.72;10328721;28;20280;-63
2023/07/20 20:56:13;;;;;;;2.78;2.53;;;;;;;-145.68;100.00;73607.72;10328783;28;20228;-65
2023/07/20 21:01:14;;;;;;;5.00;2.53;;;;;;;-145.68;100.00;73629.72;10328787;28;20293;-65
2023/07/20 21:06:14;;;;;;;2.85;2.63;;;;;;;-145.68;100.00;73631.72;10328674;28;20214;-64
2023/07/20 21:11:15;;;;;;;3.17;2.88;;;;;;;-145.68;100.00;73661.69;10329581;28;20198;-65
2023/07/20 21:16:15;;;;;;;3.28;2.42;;;;;;;-145.68;100.00;73655.69;10328201;28;20272;-65
2023/07/20 21:21:15;;;;;;;3.03;2.72;;;;;;;-145.68;100.00;73685.69;10328631;28;20194;-65
2023/07/20 21:26:16;;;;;;;5.55;2.65;;;;;;;-145.68;100.00;73687.69;10328954;28;20222;-65
2023/07/20 21:31:16;;;;;;;2.78;2.58;;;;;;;-145.68;100.00;73711.66;10328934;28;20206;-65
2023/07/20 21:36:17;;;;;;;5.30;3.00;;;;;;;-145.68;100.00;73713.66;10329038;28;20281;-65
2023/07/20 21:41:18;;;;;;;4.43;2.83;;;;;;;-145.68;100.00;73719.66;10329021;28;20202;-65
2023/07/20 21:46:18;;;;;;;3.00;2.80;;;;;;;-145.68;100.00;73713.66;10331318;28;20221;-64
2023/07/20 21:51:19;;;;;;;4.75;3.05;;;;;;;-145.68;100.00;73719.66;10336245;28;20208;-65
2023/07/20 21:56:19;;;;;;;3.25;2.95;;;;;;;-145.68;100.00;73721.66;10336243;28;20296;-65
2023/07/20 22:01:20;;;;;;;4.35;2.85;;;;;;;-145.68;100.00;73721.66;10336164;28;20205;-66
2023/07/20 22:06:20;;;;;;;2.92;2.72;;;;;;;-145.68;100.00;73713.66;10335391;28;20218;-65
2023/07/20 22:11:20;;;;;;;3.15;2.85;;;;;;;-145.68;100.00;73723.66;10335544;28;20746;-66
2023/07/20 22:16:21;;;;;;;2.80;2.60;;;;;;;-145.68;100.00;73719.66;10335163;28;20236;-65
2023/07/20 22:21:22;;;;;;;2.90;2.40;;;;;;;-145.68;100.00;73725.66;10334950;28;20194;-66
2023/07/20 22:26:24;;;;;;;3.15;2.92;;;;;;;-145.68;100.00;73729.66;10334336;28;20280;-65
2023/07/20 22:31:25;;;;;;;3.55;2.78;;;;;;;-145.68;100.00;73731.66;10334578;28;20739;-63
2023/07/20 22:36:25;;;;;;;3.28;3.08;;;;;;;-145.68;100.00;73731.66;10334283;28;20210;-65